Acacia Lake, Texas
Current Conditions -  °F | °C
As of 1:53 PM on Saturday 20 Dec 2014 (Local Time) from KBRO Reporting Station
Overcast Overcast  
Wind Chill: 15°   Ceiling: 1000
Heat Index: 15°   Visibility: 10mi
Dew Point: 12°   Wind: 14mph
Humidity: 83%   Direction: 360°N
Pressure: 30.12"   Gusts: 20mph
Location:  26.0002°N, 97.5729°W
Report Text: KBRO 201953Z 36012G17KT 10SM BKN010 OVC095 15/12 A3012 RMK AO2 SLP198 T01500122
Loading
Personal Weather Stations






























Interactive Weather Map New forecast layout! Learn more

10-Day Weather Forecast

Advertisements
Track Severe Weather on mobile